sensor_id;sensor_type;location;lat;lon;timestamp;pressure;altitude;pressure_sealevel;temperature;humidity
78584;BME280;67880;46.082;18.234;2023-07-24T00:00:13;99458.28;;;23.50;75.45
78584;BME280;67880;46.082;18.234;2023-07-24T00:00:45;99457.47;;;23.49;75.97
78584;BME280;67880;46.082;18.234;2023-07-24T00:01:17;99454.72;;;23.49;75.47
78584;BME280;67880;46.082;18.234;2023-07-24T00:01:50;99457.13;;;23.46;75.94
78584;BME280;67880;46.082;18.234;2023-07-24T00:02:21;99457.13;;;23.46;76.06
78584;BME280;67880;46.082;18.234;2023-07-24T00:02:54;99458.44;;;23.43;76.27
78584;BME280;67880;46.082;18.234;2023-07-24T00:03:27;99451.31;;;23.42;75.73
78584;BME280;67880;46.082;18.234;2023-07-24T00:03:59;99453.47;;;23.40;76.00
78584;BME280;67880;46.082;18.234;2023-07-24T00:04:31;99454.56;;;23.39;75.71
78584;BME280;67880;46.082;18.234;2023-07-24T00:05:07;99459.22;;;23.39;76.45
78584;BME280;67880;46.082;18.234;2023-07-24T00:05:39;99455.88;;;23.37;76.31
78584;BME280;67880;46.082;18.234;2023-07-24T00:06:44;99446.97;;;23.30;76.27
78584;BME280;67880;46.082;18.234;2023-07-24T00:07:16;99453.97;;;23.20;76.94
78584;BME280;67880;46.082;18.234;2023-07-24T00:07:48;99456.69;;;23.20;76.75
78584;BME280;67880;46.082;18.234;2023-07-24T00:08:20;99443.72;;;23.16;76.78
78584;BME280;67880;46.082;18.234;2023-07-24T00:09:24;99453.84;;;23.15;77.50
78584;BME280;67880;46.082;18.234;2023-07-24T00:09:56;99459.34;;;23.15;77.72
78584;BME280;67880;46.082;18.234;2023-07-24T00:10:28;99449.94;;;23.11;77.48
78584;BME280;67880;46.082;18.234;2023-07-24T00:11:00;99459.13;;;23.05;77.94
78584;BME280;67880;46.082;18.234;2023-07-24T00:11:34;99455.81;;;23.03;77.50
78584;BME280;67880;46.082;18.234;2023-07-24T00:12:39;99457.72;;;23.03;78.15
78584;BME280;67880;46.082;18.234;2023-07-24T00:13:11;99451.91;;;22.99;77.85
78584;BME280;67880;46.082;18.234;2023-07-24T00:13:44;99454.91;;;22.97;77.78
78584;BME280;67880;46.082;18.234;2023-07-24T00:14:16;99454.06;;;22.97;77.89
78584;BME280;67880;46.082;18.234;2023-07-24T00:14:48;99456.81;;;22.97;78.32
78584;BME280;67880;46.082;18.234;2023-07-24T00:15:20;99461.13;;;22.93;77.97
78584;BME280;67880;46.082;18.234;2023-07-24T00:15:52;99456.38;;;22.88;78.68
78584;BME280;67880;46.082;18.234;2023-07-24T00:16:24;99448.41;;;22.87;78.01
78584;BME280;67880;46.082;18.234;2023-07-24T00:16:57;99464.00;;;22.86;78.71
78584;BME280;67880;46.082;18.234;2023-07-24T00:17:29;99454.91;;;22.86;78.67
78584;BME280;67880;46.082;18.234;2023-07-24T00:18:01;99461.47;;;22.85;78.00
78584;BME280;67880;46.082;18.234;2023-07-24T00:18:33;99462.53;;;22.84;78.46
78584;BME280;67880;46.082;18.234;2023-07-24T00:19:05;99455.16;;;22.84;78.33
78584;BME280;67880;46.082;18.234;2023-07-24T00:19:37;99458.41;;;22.81;78.92
78584;BME280;67880;46.082;18.234;2023-07-24T00:20:09;99459.22;;;22.82;78.27
78584;BME280;67880;46.082;18.234;2023-07-24T00:20:41;99458.03;;;22.78;79.19
78584;BME280;67880;46.082;18.234;2023-07-24T00:21:15;99458.63;;;22.80;79.12
78584;BME280;67880;46.082;18.234;2023-07-24T00:21:47;99448.44;;;22.75;78.16
78584;BME280;67880;46.082;18.234;2023-07-24T00:22:19;99450.56;;;22.73;78.70
78584;BME280;67880;46.082;18.234;2023-07-24T00:22:51;99460.22;;;22.76;79.47
78584;BME280;67880;46.082;18.234;2023-07-24T00:23:23;99463.78;;;22.76;78.85
78584;BME280;67880;46.082;18.234;2023-07-24T00:23:55;99458.53;;;22.75;78.50
78584;BME280;67880;46.082;18.234;2023-07-24T00:24:27;99458.28;;;22.76;78.61
78584;BME280;67880;46.082;18.234;2023-07-24T00:24:59;99467.34;;;22.77;79.03
78584;BME280;67880;46.082;18.234;2023-07-24T00:25:31;99464.34;;;22.78;79.11
78584;BME280;67880;46.082;18.234;2023-07-24T00:26:03;99455.44;;;22.71;79.17
78584;BME280;67880;46.082;18.234;2023-07-24T00:26:34;99460.66;;;22.73;78.77
78584;BME280;67880;46.082;18.234;2023-07-24T00:27:06;99458.53;;;22.75;78.78
78584;BME280;67880;46.082;18.234;2023-07-24T00:28:44;99457.94;;;22.73;79.28
78584;BME280;67880;46.082;18.234;2023-07-24T00:29:16;99467.84;;;22.74;79.61
78584;BME280;67880;46.082;18.234;2023-07-24T00:29:48;99460.59;;;22.67;79.48
78584;BME280;67880;46.082;18.234;2023-07-24T00:30:52;99467.72;;;22.68;79.40
78584;BME280;67880;46.082;18.234;2023-07-24T00:31:24;99458.75;;;22.73;79.00
78584;BME280;67880;46.082;18.234;2023-07-24T00:31:56;99460.34;;;22.69;79.82
78584;BME280;67880;46.082;18.234;2023-07-24T00:32:28;99464.75;;;22.70;79.55
78584;BME280;67880;46.082;18.234;2023-07-24T00:33:33;99461.66;;;22.66;79.51
78584;BME280;67880;46.082;18.234;2023-07-24T00:34:05;99463.34;;;22.67;78.98
78584;BME280;67880;46.082;18.234;2023-07-24T00:34:37;99460.81;;;22.66;79.58
78584;BME280;67880;46.082;18.234;2023-07-24T00:35:09;99469.38;;;22.69;79.00
78584;BME280;67880;46.082;18.234;2023-07-24T00:35:41;99461.19;;;22.69;78.77
78584;BME280;67880;46.082;18.234;2023-07-24T00:36:13;99469.63;;;22.68;79.34
78584;BME280;67880;46.082;18.234;2023-07-24T00:36:45;99461.44;;;22.68;79.12
78584;BME280;67880;46.082;18.234;2023-07-24T00:37:50;99460.81;;;22.66;79.71
78584;BME280;67880;46.082;18.234;2023-07-24T00:38:24;99455.00;;;22.62;78.93
78584;BME280;67880;46.082;18.234;2023-07-24T00:38:56;99453.94;;;22.63;79.55
78584;BME280;67880;46.082;18.234;2023-07-24T00:39:28;99457.75;;;22.62;79.97
78584;BME280;67880;46.082;18.234;2023-07-24T00:40:34;99459.66;;;22.62;79.32
78584;BME280;67880;46.082;18.234;2023-07-24T00:41:21;99463.13;;;22.57;79.86
78584;BME280;67880;46.082;18.234;2023-07-24T00:41:54;99460.97;;;22.59;79.88
78584;BME280;67880;46.082;18.234;2023-07-24T00:42:26;99461.78;;;22.60;79.13
78584;BME280;67880;46.082;18.234;2023-07-24T00:42:58;99458.47;;;22.58;79.50
78584;BME280;67880;46.082;18.234;2023-07-24T00:43:30;99460.63;;;22.56;80.09
78584;BME280;67880;46.082;18.234;2023-07-24T00:44:02;99456.69;;;22.52;79.67
78584;BME280;67880;46.082;18.234;2023-07-24T00:44:34;99462.53;;;22.55;79.59
78584;BME280;67880;46.082;18.234;2023-07-24T00:45:06;99463.38;;;22.56;79.96
78584;BME280;67880;46.082;18.234;2023-07-24T00:45:38;99462.03;;;22.58;79.65
78584;BME280;67880;46.082;18.234;2023-07-24T00:46:43;99458.47;;;22.58;79.88
78584;BME280;67880;46.082;18.234;2023-07-24T00:47:16;99459.03;;;22.60;79.49
78584;BME280;67880;46.082;18.234;2023-07-24T00:47:49;99454.66;;;22.59;79.97
78584;BME280;67880;46.082;18.234;2023-07-24T00:48:21;99449.78;;;22.61;79.77
78584;BME280;67880;46.082;18.234;2023-07-24T00:48:53;99447.53;;;22.58;80.35
78584;BME280;67880;46.082;18.234;2023-07-24T00:49:26;99446.34;;;22.54;79.45
78584;BME280;67880;46.082;18.234;2023-07-24T00:49:58;99451.59;;;22.55;80.22
78584;BME280;67880;46.082;18.234;2023-07-24T00:51:03;99450.84;;;22.60;80.04
78584;BME280;67880;46.082;18.234;2023-07-24T00:51:36;99450.00;;;22.59;79.74
78584;BME280;67880;46.082;18.234;2023-07-24T00:52:42;99445.03;;;22.56;79.52
78584;BME280;67880;46.082;18.234;2023-07-24T00:53:16;99443.03;;;22.52;80.00
78584;BME280;67880;46.082;18.234;2023-07-24T00:53:49;99447.19;;;22.54;80.46
78584;BME280;67880;46.082;18.234;2023-07-24T00:54:22;99444.09;;;22.51;79.76
78584;BME280;67880;46.082;18.234;2023-07-24T00:54:55;99451.22;;;22.52;80.57
78584;BME280;67880;46.082;18.234;2023-07-24T00:55:27;99454.69;;;22.47;80.50
78584;BME280;67880;46.082;18.234;2023-07-24T00:55:59;99454.22;;;22.50;80.76
78584;BME280;67880;46.082;18.234;2023-07-24T00:56:32;99453.38;;;22.50;79.92
78584;BME280;67880;46.082;18.234;2023-07-24T00:57:05;99448.63;;;22.45;80.65
78584;BME280;67880;46.082;18.234;2023-07-24T00:57:37;99452.19;;;22.46;80.16
78584;BME280;67880;46.082;18.234;2023-07-24T00:58:11;99450.28;;;22.46;80.19
78584;BME280;67880;46.082;18.234;2023-07-24T00:58:43;99444.09;;;22.51;80.11
78584;BME280;67880;46.082;18.234;2023-07-24T00:59:16;99443.13;;;22.57;79.75
78584;BME280;67880;46.082;18.234;2023-07-24T00:59:48;99449.69;;;22.56;80.24
78584;BME280;67880;46.082;18.234;2023-07-24T01:00:20;99444.47;;;22.54;80.04
78584;BME280;67880;46.082;18.234;2023-07-24T01:00:52;99441.13;;;22.52;79.44
78584;BME280;67880;46.082;18.234;2023-07-24T01:01:58;99442.19;;;22.51;79.94
78584;BME280;67880;46.082;18.234;2023-07-24T01:02:30;99443.28;;;22.50;79.74
78584;BME280;67880;46.082;18.234;2023-07-24T01:03:02;99448.75;;;22.50;80.00
78584;BME280;67880;46.082;18.234;2023-07-24T01:03:35;99444.34;;;22.49;80.04
78584;BME280;67880;46.082;18.234;2023-07-24T01:04:08;99441.94;;;22.53;80.18
78584;BME280;67880;46.082;18.234;2023-07-24T01:04:40;99442.78;;;22.53;80.18
78584;BME280;67880;46.082;18.234;2023-07-24T01:05:16;99450.41;;;22.51;80.09
78584;BME280;67880;46.082;18.234;2023-07-24T01:05:48;99448.75;;;22.50;80.55
78584;BME280;67880;46.082;18.234;2023-07-24T01:06:20;99445.75;;;22.52;80.62
78584;BME280;67880;46.082;18.234;2023-07-24T01:06:52;99444.69;;;22.53;80.13
78584;BME280;67880;46.082;18.234;2023-07-24T01:07:25;99447.56;;;22.46;80.60
78584;BME280;67880;46.082;18.234;2023-07-24T01:07:57;99439.22;;;22.41;80.64
78584;BME280;67880;46.082;18.234;2023-07-24T01:08:29;99441.63;;;22.37;80.17
78584;BME280;67880;46.082;18.234;2023-07-24T01:09:01;99443.53;;;22.37;80.93
78584;BME280;67880;46.082;18.234;2023-07-24T01:09:33;99437.25;;;22.36;80.00
78584;BME280;67880;46.082;18.234;2023-07-24T01:10:06;99438.66;;;22.39;79.96
78584;BME280;67880;46.082;18.234;2023-07-24T01:10:38;99436.63;;;22.34;80.61
78584;BME280;67880;46.082;18.234;2023-07-24T01:11:20;99446.84;;;22.39;80.27
78584;BME280;67880;46.082;18.234;2023-07-24T01:12:23;99441.97;;;22.41;80.88
78584;BME280;67880;46.082;18.234;2023-07-24T01:13:15;99435.81;;;22.34;80.96
78584;BME280;67880;46.082;18.234;2023-07-24T01:13:58;99439.88;;;22.31;80.47
78584;BME280;67880;46.082;18.234;2023-07-24T01:14:38;99437.50;;;22.35;81.20
78584;BME280;67880;46.082;18.234;2023-07-24T01:16:23;99441.78;;;22.31;80.88
78584;BME280;67880;46.082;18.234;2023-07-24T01:16:58;99448.31;;;22.30;81.03
78584;BME280;67880;46.082;18.234;2023-07-24T01:17:32;99446.66;;;22.29;81.34
78584;BME280;67880;46.082;18.234;2023-07-24T01:18:08;99447.25;;;22.31;82.02
78584;BME280;67880;46.082;18.234;2023-07-24T01:19:36;99449.97;;;22.31;80.62
78584;BME280;67880;46.082;18.234;2023-07-24T01:20:11;99445.59;;;22.30;80.80
78584;BME280;67880;46.082;18.234;2023-07-24T01:20:50;99444.16;;;22.27;80.90
78584;BME280;67880;46.082;18.234;2023-07-24T01:24:29;99446.53;;;22.24;81.36
78584;BME280;67880;46.082;18.234;2023-07-24T01:25:57;99440.81;;;22.25;81.22
78584;BME280;67880;46.082;18.234;2023-07-24T01:26:30;99447.13;;;22.26;81.77
78584;BME280;67880;46.082;18.234;2023-07-24T01:27:03;99443.56;;;22.25;81.21
78584;BME280;67880;46.082;18.234;2023-07-24T01:27:35;99440.47;;;22.22;81.78
78584;BME280;67880;46.082;18.234;2023-07-24T01:28:08;99438.09;;;22.25;81.70
78584;BME280;67880;46.082;18.234;2023-07-24T01:28:40;99445.47;;;22.25;81.13
78584;BME280;67880;46.082;18.234;2023-07-24T01:29:12;99442.97;;;22.23;81.62
78584;BME280;67880;46.082;18.234;2023-07-24T01:29:44;99443.81;;;22.24;81.32
78584;BME280;67880;46.082;18.234;2023-07-24T01:30:19;99442.97;;;22.23;80.63
78584;BME280;67880;46.082;18.234;2023-07-24T01:30:52;99443.81;;;22.24;80.47
78584;BME280;67880;46.082;18.234;2023-07-24T01:31:24;99431.69;;;22.20;81.09
78584;BME280;67880;46.082;18.234;2023-07-24T01:31:56;99445.34;;;22.20;80.59
78584;BME280;67880;46.082;18.234;2023-07-24T01:32:28;99434.66;;;22.18;80.64
78584;BME280;67880;46.082;18.234;2023-07-24T01:33:33;99437.88;;;22.15;81.20
78584;BME280;67880;46.082;18.234;2023-07-24T01:34:07;99442.63;;;22.20;81.38
78584;BME280;67880;46.082;18.234;2023-07-24T01:34:39;99439.06;;;22.19;81.49
78584;BME280;67880;46.082;18.234;2023-07-24T01:35:44;99434.91;;;22.16;80.87
78584;BME280;67880;46.082;18.234;2023-07-24T01:36:49;99437.03;;;22.14;80.42
78584;BME280;67880;46.082;18.234;2023-07-24T01:37:22;99436.81;;;22.16;80.86
78584;BME280;67880;46.082;18.234;2023-07-24T01:37:56;99436.19;;;22.14;80.46
78584;BME280;67880;46.082;18.234;2023-07-24T01:39:02;99433.47;;;22.14;81.52
78584;BME280;67880;46.082;18.234;2023-07-24T01:39:36;99437.28;;;22.13;80.20
78584;BME280;67880;46.082;18.234;2023-07-24T01:40:10;99435.38;;;22.13;80.04
78584;BME280;67880;46.082;18.234;2023-07-24T01:41:17;99433.72;;;22.12;80.68
78584;BME280;67880;46.082;18.234;2023-07-24T01:41:49;99435.63;;;22.12;80.64
78584;BME280;67880;46.082;18.234;2023-07-24T01:42:22;99422.78;;;22.12;81.38
78584;BME280;67880;46.082;18.234;2023-07-24T01:42:55;99433.59;;;22.19;80.87
78584;BME280;67880;46.082;18.234;2023-07-24T01:43:28;99425.97;;;22.21;81.59
78584;BME280;67880;46.082;18.234;2023-07-24T01:44:01;99426.47;;;22.18;81.30
78584;BME280;67880;46.082;18.234;2023-07-24T01:44:33;99433.25;;;22.15;81.42
78584;BME280;67880;46.082;18.234;2023-07-24T01:45:05;99431.34;;;22.16;81.42
78584;BME280;67880;46.082;18.234;2023-07-24T01:45:37;99423.03;;;22.11;81.47
78584;BME280;67880;46.082;18.234;2023-07-24T01:46:09;99418.72;;;22.03;82.64
78584;BME280;67880;46.082;18.234;2023-07-24T01:46:41;99430.13;;;22.00;82.18
78584;BME280;67880;46.082;18.234;2023-07-24T01:47:46;99427.53;;;21.94;82.66
78584;BME280;67880;46.082;18.234;2023-07-24T01:48:51;99427.28;;;21.95;82.59
78584;BME280;67880;46.082;18.234;2023-07-24T01:49:24;99427.88;;;21.97;83.11
78584;BME280;67880;46.082;18.234;2023-07-24T01:49:56;99420.75;;;21.96;82.38
78584;BME280;67880;46.082;18.234;2023-07-24T01:50:28;99421.09;;;22.00;81.99
78584;BME280;67880;46.082;18.234;2023-07-24T01:51:00;99429.06;;;22.01;83.08
78584;BME280;67880;46.082;18.234;2023-07-24T01:51:32;99411.25;;;21.99;82.79
78584;BME280;67880;46.082;18.234;2023-07-24T01:52:04;99427.66;;;21.99;82.67
78584;BME280;67880;46.082;18.234;2023-07-24T01:52:36;99418.38;;;22.00;82.42
78584;BME280;67880;46.082;18.234;2023-07-24T01:53:08;99413.41;;;21.97;82.97
78584;BME280;67880;46.082;18.234;2023-07-24T01:53:41;99422.63;;;21.96;82.67
78584;BME280;67880;46.082;18.234;2023-07-24T01:54:13;99416.72;;;21.99;82.43
78584;BME280;67880;46.082;18.234;2023-07-24T01:54:45;99425.38;;;21.96;82.82
78584;BME280;67880;46.082;18.234;2023-07-24T01:55:58;99413.84;;;21.94;82.54
78584;BME280;67880;46.082;18.234;2023-07-24T01:56:30;99422.88;;;21.94;82.65
78584;BME280;67880;46.082;18.234;2023-07-24T01:57:03;99423.13;;;21.93;82.94
78584;BME280;67880;46.082;18.234;2023-07-24T01:57:35;99426.09;;;21.91;82.87
78584;BME280;67880;46.082;18.234;2023-07-24T01:58:07;99418.38;;;21.88;82.83
78584;BME280;67880;46.082;18.234;2023-07-24T01:58:39;99415.31;;;21.84;81.95
78584;BME280;67880;46.082;18.234;2023-07-24T01:59:11;99424.34;;;21.85;82.64
78584;BME280;67880;46.082;18.234;2023-07-24T01:59:43;99420.97;;;21.83;83.02
78584;BME280;67880;46.082;18.234;2023-07-24T02:00:16;99421.22;;;21.81;82.52
78584;BME280;67880;46.082;18.234;2023-07-24T02:00:48;99424.22;;;21.80;82.50
78584;BME280;67880;46.082;18.234;2023-07-24T02:01:21;99416.25;;;21.78;82.90
78584;BME280;67880;46.082;18.234;2023-07-24T02:01:52;99412.06;;;21.76;82.61
78584;BME280;67880;46.082;18.234;2023-07-24T02:02:25;99422.44;;;21.74;82.79
78584;BME280;67880;46.082;18.234;2023-07-24T02:02:57;99416.97;;;21.74;82.88
78584;BME280;67880;46.082;18.234;2023-07-24T02:03:29;99414.81;;;21.76;82.50
78584;BME280;67880;46.082;18.234;2023-07-24T02:04:37;99416.97;;;21.74;81.96
78584;BME280;67880;46.082;18.234;2023-07-24T02:05:09;99415.44;;;21.78;82.02
78584;BME280;67880;46.082;18.234;2023-07-24T02:05:41;99414.59;;;21.77;82.20
78584;BME280;67880;46.082;18.234;2023-07-24T02:06:13;99413.78;;;21.77;81.88
78584;BME280;67880;46.082;18.234;2023-07-24T02:07:18;99409.47;;;21.69;81.93
78584;BME280;67880;46.082;18.234;2023-07-24T02:07:51;99414.94;;;21.69;82.14
78584;BME280;67880;46.082;18.234;2023-07-24T02:08:23;99416.38;;;21.72;81.72
78584;BME280;67880;46.082;18.234;2023-07-24T02:08:55;99414.09;;;21.69;82.17
78584;BME280;67880;46.082;18.234;2023-07-24T02:09:27;99416.84;;;21.69;82.31
78584;BME280;67880;46.082;18.234;2023-07-24T02:09:59;99412.09;;;21.64;81.71
78584;BME280;67880;46.082;18.234;2023-07-24T02:10:31;99413.53;;;21.67;81.79
78584;BME280;67880;46.082;18.234;2023-07-24T02:11:03;99408.31;;;21.65;82.34
78584;BME280;67880;46.082;18.234;2023-07-24T02:12:41;99408.06;;;21.67;82.07
78584;BME280;67880;46.082;18.234;2023-07-24T02:13:13;99412.19;;;21.69;82.17
78584;BME280;67880;46.082;18.234;2023-07-24T02:13:46;99402.94;;;21.70;82.35
78584;BME280;67880;46.082;18.234;2023-07-24T02:14:18;99405.44;;;21.72;82.18
78584;BME280;67880;46.082;18.234;2023-07-24T02:14:50;99409.25;;;21.71;82.10
78584;BME280;67880;46.082;18.234;2023-07-24T02:15:23;99408.19;;;21.72;82.14
78584;BME280;67880;46.082;18.234;2023-07-24T02:15:55;99403.28;;;21.74;82.79
78584;BME280;67880;46.082;18.234;2023-07-24T02:16:27;99399.16;;;21.71;82.66
78584;BME280;67880;46.082;18.234;2023-07-24T02:17:33;99404.13;;;21.62;82.98
78584;BME280;67880;46.082;18.234;2023-07-24T02:18:05;99399.72;;;21.61;83.20
78584;BME280;67880;46.082;18.234;2023-07-24T02:18:38;99401.38;;;21.62;83.37
78584;BME280;67880;46.082;18.234;2023-07-24T02:19:10;99410.66;;;21.61;83.50
78584;BME280;67880;46.082;18.234;2023-07-24T02:19:42;99403.16;;;21.57;83.68
78584;BME280;67880;46.082;18.234;2023-07-24T02:20:14;99404.47;;;21.54;83.64
78584;BME280;67880;46.082;18.234;2023-07-24T02:20:50;99404.47;;;21.54;84.22
78584;BME280;67880;46.082;18.234;2023-07-24T02:22:31;99404.47;;;21.54;84.40
78584;BME280;67880;46.082;18.234;2023-07-24T02:23:03;99397.38;;;21.53;84.93
78584;BME280;67880;46.082;18.234;2023-07-24T02:23:35;99403.28;;;21.50;84.30
78584;BME280;67880;46.082;18.234;2023-07-24T02:24:07;99400.94;;;21.54;84.74
78584;BME280;67880;46.082;18.234;2023-07-24T02:24:39;99406.63;;;21.52;84.90
78584;BME280;67880;46.082;18.234;2023-07-24T02:25:12;99406.00;;;21.50;84.32
78584;BME280;67880;46.082;18.234;2023-07-24T02:25:44;99396.78;;;21.51;84.74
78584;BME280;67880;46.082;18.234;2023-07-24T02:26:49;99399.97;;;21.48;85.10
78584;BME280;67880;46.082;18.234;2023-07-24T02:27:38;99398.66;;;21.51;85.53
78584;BME280;67880;46.082;18.234;2023-07-24T02:28:10;99392.34;;;21.50;85.25
78584;BME280;67880;46.082;18.234;2023-07-24T02:28:42;99392.16;;;21.52;84.59
78584;BME280;67880;46.082;18.234;2023-07-24T02:30:18;99395.09;;;21.50;84.71
78584;BME280;67880;46.082;18.234;2023-07-24T02:30:50;99396.88;;;21.56;83.82
78584;BME280;67880;46.082;18.234;2023-07-24T02:31:27;99399.41;;;21.58;83.99
78584;BME280;67880;46.082;18.234;2023-07-24T02:32:00;99392.03;;;21.58;83.57
78584;BME280;67880;46.082;18.234;2023-07-24T02:32:32;99396.41;;;21.59;83.90
78584;BME280;67880;46.082;18.234;2023-07-24T02:33:04;99390.72;;;21.61;83.86
78584;BME280;67880;46.082;18.234;2023-07-24T02:33:36;99396.16;;;21.61;83.68
78584;BME280;67880;46.082;18.234;2023-07-24T02:34:08;99394.38;;;21.55;83.87
78584;BME280;67880;46.082;18.234;2023-07-24T02:34:40;99396.28;;;21.54;84.20
78584;BME280;67880;46.082;18.234;2023-07-24T02:36:20;99392.00;;;21.47;83.76
78584;BME280;67880;46.082;18.234;2023-07-24T02:36:55;99402.13;;;21.46;83.92
78584;BME280;67880;46.082;18.234;2023-07-24T02:37:27;99402.44;;;21.50;83.81
78584;BME280;67880;46.082;18.234;2023-07-24T02:38:35;99403.19;;;21.45;83.94
78584;BME280;67880;46.082;18.234;2023-07-24T02:39:10;99400.09;;;21.42;84.72
78584;BME280;67880;46.082;18.234;2023-07-24T02:39:45;99406.13;;;21.44;84.36
78584;BME280;67880;46.082;18.234;2023-07-24T02:40:24;99398.41;;;21.41;84.54
78584;BME280;67880;46.082;18.234;2023-07-24T02:40:59;99405.69;;;21.47;84.02
78584;BME280;67880;46.082;18.234;2023-07-24T02:42:04;99404.34;;;21.49;83.62
78584;BME280;67880;46.082;18.234;2023-07-24T02:42:36;99401.28;;;21.46;84.47
78584;BME280;67880;46.082;18.234;2023-07-24T02:43:08;99402.94;;;21.47;84.42
78584;BME280;67880;46.082;18.234;2023-07-24T02:43:40;99407.81;;;21.45;84.62
78584;BME280;67880;46.082;18.234;2023-07-24T02:44:12;99405.44;;;21.48;84.94
78584;BME280;67880;46.082;18.234;2023-07-24T02:44:44;99404.59;;;21.48;84.60
78584;BME280;67880;46.082;18.234;2023-07-24T02:45:16;99400.22;;;21.47;84.81
78584;BME280;67880;46.082;18.234;2023-07-24T02:45:48;99407.72;;;21.51;84.72
78584;BME280;67880;46.082;18.234;2023-07-24T02:46:20;99392.84;;;21.47;84.75
78584;BME280;67880;46.082;18.234;2023-07-24T02:46:52;99402.34;;;21.45;84.38
78584;BME280;67880;46.082;18.234;2023-07-24T02:47:24;99401.28;;;21.46;84.98
78584;BME280;67880;46.082;18.234;2023-07-24T02:48:29;99398.19;;;21.42;84.53
78584;BME280;67880;46.082;18.234;2023-07-24T02:49:34;99397.59;;;21.40;84.54
78584;BME280;67880;46.082;18.234;2023-07-24T02:50:09;99401.16;;;21.41;84.30
78584;BME280;67880;46.082;18.234;2023-07-24T02:50:41;99394.88;;;21.40;84.48
78584;BME280;67880;46.082;18.234;2023-07-24T02:51:13;99394.50;;;21.48;84.47
78584;BME280;67880;46.082;18.234;2023-07-24T02:52:18;99403.28;;;21.50;83.52
78584;BME280;67880;46.082;18.234;2023-07-24T02:52:50;99399.50;;;21.51;83.60
78584;BME280;67880;46.082;18.234;2023-07-24T02:53:22;99402.94;;;21.47;83.76
78584;BME280;67880;46.082;18.234;2023-07-24T02:53:54;99400.78;;;21.49;84.06
78584;BME280;67880;46.082;18.234;2023-07-24T02:54:26;99405.53;;;21.42;84.23
78584;BME280;67880;46.082;18.234;2023-07-24T02:55:32;99396.88;;;21.33;84.29
78584;BME280;67880;46.082;18.234;2023-07-24T02:56:04;99396.63;;;21.34;84.02
78584;BME280;67880;46.082;18.234;2023-07-24T02:56:36;99401.03;;;21.35;84.40
78584;BME280;67880;46.082;18.234;2023-07-24T02:57:41;99396.28;;;21.43;84.20
78584;BME280;67880;46.082;18.234;2023-07-24T02:58:13;99394.16;;;21.45;83.55
78584;BME280;67880;46.082;18.234;2023-07-24T02:58:46;99395.81;;;21.46;84.14
78584;BME280;67880;46.082;18.234;2023-07-24T02:59:50;99390.47;;;21.39;84.03
78584;BME280;67880;46.082;18.234;2023-07-24T03:00:24;99395.94;;;21.39;84.24
78584;BME280;67880;46.082;18.234;2023-07-24T03:01:03;99402.09;;;21.34;84.23
78584;BME280;67880;46.082;18.234;2023-07-24T03:01:39;99394.16;;;21.33;84.34
78584;BME280;67880;46.082;18.234;2023-07-24T03:02:11;99395.22;;;21.32;84.64
78584;BME280;67880;46.082;18.234;2023-07-24T03:02:43;99396.25;;;21.31;84.71
78584;BME280;67880;46.082;18.234;2023-07-24T03:03:15;99398.53;;;21.34;84.56
78584;BME280;67880;46.082;18.234;2023-07-24T03:03:47;99394.72;;;21.35;84.39
78584;BME280;67880;46.082;18.234;2023-07-24T03:04:21;99396.88;;;21.33;84.24
78584;BME280;67880;46.082;18.234;2023-07-24T03:05:29;99406.59;;;21.29;84.37
78584;BME280;67880;46.082;18.234;2023-07-24T03:06:34;99394.09;;;21.21;85.02
78584;BME280;67880;46.082;18.234;2023-07-24T03:07:40;99390.53;;;21.21;85.00
78584;BME280;67880;46.082;18.234;2023-07-24T03:08:12;99391.38;;;21.21;84.66
78584;BME280;67880;46.082;18.234;2023-07-24T03:08:44;99395.38;;;21.19;85.09
78584;BME280;67880;46.082;18.234;2023-07-24T03:09:50;99399.31;;;21.23;85.43
78584;BME280;67880;46.082;18.234;2023-07-24T03:10:23;99392.44;;;21.20;85.32
78584;BME280;67880;46.082;18.234;2023-07-24T03:12:12;99389.72;;;21.20;85.23
78584;BME280;67880;46.082;18.234;2023-07-24T03:12:45;99394.53;;;21.18;85.48
78584;BME280;67880;46.082;18.234;2023-07-24T03:13:17;99390.78;;;21.19;85.68
78584;BME280;67880;46.082;18.234;2023-07-24T03:13:49;99394.78;;;21.17;86.12
78584;BME280;67880;46.082;18.234;2023-07-24T03:14:21;99396.94;;;21.15;86.18
78584;BME280;67880;46.082;18.234;2023-07-24T03:16:06;99400.50;;;21.15;86.02
78584;BME280;67880;46.082;18.234;2023-07-24T03:17:10;99405.94;;;21.15;86.01
78584;BME280;67880;46.082;18.234;2023-07-24T03:17:44;99399.41;;;21.16;86.09
78584;BME280;67880;46.082;18.234;2023-07-24T03:18:16;99399.41;;;21.16;85.77
78584;BME280;67880;46.082;18.234;2023-07-24T03:18:48;99400.00;;;21.18;85.48
78584;BME280;67880;46.082;18.234;2023-07-24T03:19:20;99411.53;;;21.20;85.38
78584;BME280;67880;46.082;18.234;2023-07-24T03:19:54;99409.41;;;21.22;85.44
78584;BME280;67880;46.082;18.234;2023-07-24T03:20:26;99400.97;;;21.24;85.34
78584;BME280;67880;46.082;18.234;2023-07-24T03:20:59;99405.16;;;21.26;84.68
78584;BME280;67880;46.082;18.234;2023-07-24T03:21:31;99409.53;;;21.27;84.88
78584;BME280;67880;46.082;18.234;2023-07-24T03:22:36;99406.22;;;21.25;85.01
78584;BME280;67880;46.082;18.234;2023-07-24T03:23:08;99412.06;;;21.29;84.96
78584;BME280;67880;46.082;18.234;2023-07-24T03:23:40;99407.44;;;21.29;85.05
78584;BME280;67880;46.082;18.234;2023-07-24T03:24:11;99406.81;;;21.27;84.24
78584;BME280;67880;46.082;18.234;2023-07-24T03:24:43;99412.88;;;21.29;84.82
78584;BME280;67880;46.082;18.234;2023-07-24T03:25:49;99403.41;;;21.32;84.75
78584;BME280;67880;46.082;18.234;2023-07-24T03:27:01;99408.50;;;21.28;84.35
78584;BME280;67880;46.082;18.234;2023-07-24T03:28:09;99401.59;;;21.26;84.51